This is the latest recevied weather packets stored in our database for station/object W7OWO-1. If no packets are shown the sender has not sent any weather packets the latest 10 day(s).
| Time | Temp. | Humidity | Pressure | Rain* | Wind** | Luminosity | Snow |
|---|---|---|---|---|---|---|---|
| 1777904823 | 12.22° C | 96% | 1012.7 hPa | 0 mm | - | - | - |
| 1777903743 | 11.67° C | 97% | 1012.4 hPa | 0 mm | - | - | - |
| 1777902843 | 11.67° C | 98% | 1012.2 hPa | 0 mm | - | - | - |
| 1777901763 | 10.56° C | 100% | 1012.1 hPa | 0 mm | - | - | - |
| 1777898703 | 10° C | 97% | 1011.3 hPa | 0 mm | - | - | - |
| 1777898163 | 10.56° C | 97% | 1011.1 hPa | 0 mm | - | - | - |
| 1777897083 | 10.56° C | 97% | 1011 hPa | 0 mm | - | - | - |
| 1777895643 | 10.56° C | 96% | 1010.8 hPa | 0 mm | - | - | - |
| 1777894563 | 11.11° C | 95% | 1010.7 hPa | 0 mm | - | - | - |
| 1777893483 | 11.67° C | 95% | 1010.5 hPa | 0 mm | - | - | - |
| 1777890423 | 12.78° C | 90% | 1010 hPa | 0 mm | - | - | - |
| 1777888443 | 12.78° C | 91% | 1009.6 hPa | 0 mm | - | - | - |
| 1777885203 | 15° C | 84% | 1008.9 hPa | 0 mm | - | - | - |
| 1777883223 | 16.67° C | 78% | 1008.5 hPa | 0 mm | - | - | - |
| 1777877643 | 21.11° C | 57% | 1007.5 hPa | 0 mm | - | - | - |
| 1777874403 | 21.11° C | 57% | 1007.3 hPa | 0 mm | - | - | - |
| 1777870443 | 21.11° C | 59% | 1007 hPa | 0 mm | - | - | - |
| 1777869903 | 20° C | 65% | 1006.9 hPa | 0 mm | - | - | - |
| 1777866303 | 20° C | 68% | 1006.6 hPa | 0 mm | - | - | - |
| 1777865763 | 20.56° C | 66% | 1006.4 hPa | 0 mm | - | - | - |
| 1777863243 | 24.44° C | 57% | 1006 hPa | 0 mm | - | - | - |
| 1777860544 | 31.11° C | 37% | 1005.9 hPa | 0 mm | - | - | - |
| 1777858023 | 33.33° C | 32% | 1006.1 hPa | 0 mm | - | - | - |
| 1777857483 | 33.33° C | 32% | 1006.3 hPa | 0 mm | - | - | - |
| 1777856403 | 33.33° C | 30% | 1006.4 hPa | 0 mm | - | - | - |
* Rain latest hour (hover to see other rain measurements)
** Current wind speed in m/s (hover to see current wind gust speed)